sensor_id;sensor_type;location;lat;lon;timestamp;P1;durP1;ratioP1;P2;durP2;ratioP2
76617;SDS011;65509;42.816;74.648;2023-04-25T00:02:21;13.80;;;4.15;;
76617;SDS011;65509;42.816;74.648;2023-04-25T00:04:47;13.63;;;3.70;;
76617;SDS011;65509;42.816;74.648;2023-04-25T00:07:14;17.23;;;4.70;;
76617;SDS011;65509;42.816;74.648;2023-04-25T00:09:40;13.35;;;4.53;;
76617;SDS011;65509;42.816;74.648;2023-04-25T00:12:05;17.08;;;4.90;;
76617;SDS011;65509;42.816;74.648;2023-04-25T00:14:31;22.67;;;5.72;;
76617;SDS011;65509;42.816;74.648;2023-04-25T00:16:59;13.25;;;4.18;;
76617;SDS011;65509;42.816;74.648;2023-04-25T00:19:25;20.85;;;4.70;;
76617;SDS011;65509;42.816;74.648;2023-04-25T00:21:52;15.65;;;3.70;;
76617;SDS011;65509;42.816;74.648;2023-04-25T00:24:19;16.15;;;4.95;;
76617;SDS011;65509;42.816;74.648;2023-04-25T00:26:44;15.32;;;4.40;;
76617;SDS011;65509;42.816;74.648;2023-04-25T00:29:10;10.90;;;3.30;;
76617;SDS011;65509;42.816;74.648;2023-04-25T00:31:35;12.07;;;3.67;;
76617;SDS011;65509;42.816;74.648;2023-04-25T00:34:01;12.45;;;3.30;;
76617;SDS011;65509;42.816;74.648;2023-04-25T00:36:26;15.73;;;3.97;;
76617;SDS011;65509;42.816;74.648;2023-04-25T00:38:53;15.95;;;4.05;;
76617;SDS011;65509;42.816;74.648;2023-04-25T00:41:19;13.80;;;3.88;;
76617;SDS011;65509;42.816;74.648;2023-04-25T00:43:48;12.70;;;3.58;;
76617;SDS011;65509;42.816;74.648;2023-04-25T00:46:13;11.70;;;3.67;;
76617;SDS011;65509;42.816;74.648;2023-04-25T00:48:38;18.85;;;3.60;;
76617;SDS011;65509;42.816;74.648;2023-04-25T00:51:04;10.00;;;2.80;;
76617;SDS011;65509;42.816;74.648;2023-04-25T00:53:29;19.40;;;4.32;;
76617;SDS011;65509;42.816;74.648;2023-04-25T00:55:55;16.23;;;4.63;;
76617;SDS011;65509;42.816;74.648;2023-04-25T00:58:21;17.40;;;4.75;;
76617;SDS011;65509;42.816;74.648;2023-04-25T01:00:47;15.13;;;4.05;;
76617;SDS011;65509;42.816;74.648;2023-04-25T01:03:13;16.77;;;3.33;;
76617;SDS011;65509;42.816;74.648;2023-04-25T01:05:41;11.80;;;3.40;;
76617;SDS011;65509;42.816;74.648;2023-04-25T01:08:07;15.40;;;2.95;;
76617;SDS011;65509;42.816;74.648;2023-04-25T01:10:32;13.73;;;3.97;;
76617;SDS011;65509;42.816;74.648;2023-04-25T01:12:58;29.42;;;5.95;;
76617;SDS011;65509;42.816;74.648;2023-04-25T01:15:23;23.75;;;5.75;;
76617;SDS011;65509;42.816;74.648;2023-04-25T01:17:49;17.20;;;5.50;;
76617;SDS011;65509;42.816;74.648;2023-04-25T01:20:14;13.80;;;3.55;;
76617;SDS011;65509;42.816;74.648;2023-04-25T01:22:41;15.90;;;3.70;;
76617;SDS011;65509;42.816;74.648;2023-04-25T01:25:07;16.80;;;3.97;;
76617;SDS011;65509;42.816;74.648;2023-04-25T01:27:32;18.75;;;4.38;;
76617;SDS011;65509;42.816;74.648;2023-04-25T01:29:58;20.38;;;4.07;;
76617;SDS011;65509;42.816;74.648;2023-04-25T01:32:24;14.23;;;3.78;;
76617;SDS011;65509;42.816;74.648;2023-04-25T01:34:50;12.90;;;3.60;;
76617;SDS011;65509;42.816;74.648;2023-04-25T01:37:16;13.48;;;3.78;;
76617;SDS011;65509;42.816;74.648;2023-04-25T01:39:41;20.52;;;5.72;;
76617;SDS011;65509;42.816;74.648;2023-04-25T01:42:07;14.23;;;4.10;;
76617;SDS011;65509;42.816;74.648;2023-04-25T01:44:32;20.70;;;4.35;;
76617;SDS011;65509;42.816;74.648;2023-04-25T01:46:58;16.30;;;6.07;;
76617;SDS011;65509;42.816;74.648;2023-04-25T01:49:23;13.50;;;3.67;;
76617;SDS011;65509;42.816;74.648;2023-04-25T01:51:48;12.32;;;3.38;;
76617;SDS011;65509;42.816;74.648;2023-04-25T01:54:14;17.08;;;4.30;;
76617;SDS011;65509;42.816;74.648;2023-04-25T01:56:39;10.13;;;3.20;;
76617;SDS011;65509;42.816;74.648;2023-04-25T01:59:05;13.32;;;3.38;;
76617;SDS011;65509;42.816;74.648;2023-04-25T02:01:30;14.20;;;4.00;;
76617;SDS011;65509;42.816;74.648;2023-04-25T02:03:56;10.80;;;3.58;;
76617;SDS011;65509;42.816;74.648;2023-04-25T02:06:21;14.43;;;2.85;;
76617;SDS011;65509;42.816;74.648;2023-04-25T02:08:47;10.60;;;2.85;;
76617;SDS011;65509;42.816;74.648;2023-04-25T02:11:12;11.00;;;3.13;;
76617;SDS011;65509;42.816;74.648;2023-04-25T02:13:38;21.73;;;4.80;;
76617;SDS011;65509;42.816;74.648;2023-04-25T02:16:03;9.70;;;2.42;;
76617;SDS011;65509;42.816;74.648;2023-04-25T02:18:29;12.27;;;3.40;;
76617;SDS011;65509;42.816;74.648;2023-04-25T02:20:54;11.10;;;3.22;;
76617;SDS011;65509;42.816;74.648;2023-04-25T02:23:20;9.93;;;2.88;;
76617;SDS011;65509;42.816;74.648;2023-04-25T02:25:45;14.05;;;3.35;;
76617;SDS011;65509;42.816;74.648;2023-04-25T02:28:11;10.80;;;2.40;;
76617;SDS011;65509;42.816;74.648;2023-04-25T02:30:36;31.00;;;4.38;;
76617;SDS011;65509;42.816;74.648;2023-04-25T02:33:02;26.65;;;4.25;;
76617;SDS011;65509;42.816;74.648;2023-04-25T02:35:28;26.13;;;4.30;;
76617;SDS011;65509;42.816;74.648;2023-04-25T02:37:53;26.42;;;4.18;;
76617;SDS011;65509;42.816;74.648;2023-04-25T02:40:19;15.38;;;3.80;;
76617;SDS011;65509;42.816;74.648;2023-04-25T02:42:44;24.80;;;4.28;;
76617;SDS011;65509;42.816;74.648;2023-04-25T02:45:11;20.80;;;3.45;;
76617;SDS011;65509;42.816;74.648;2023-04-25T02:47:36;18.48;;;3.53;;
76617;SDS011;65509;42.816;74.648;2023-04-25T02:50:02;16.02;;;3.95;;
76617;SDS011;65509;42.816;74.648;2023-04-25T02:52:27;19.92;;;3.88;;
76617;SDS011;65509;42.816;74.648;2023-04-25T02:54:53;18.55;;;4.40;;
76617;SDS011;65509;42.816;74.648;2023-04-25T02:57:18;15.45;;;5.22;;
76617;SDS011;65509;42.816;74.648;2023-04-25T02:59:44;16.98;;;4.90;;
76617;SDS011;65509;42.816;74.648;2023-04-25T03:02:09;21.50;;;5.47;;
76617;SDS011;65509;42.816;74.648;2023-04-25T03:04:35;19.25;;;4.72;;
76617;SDS011;65509;42.816;74.648;2023-04-25T03:07:00;17.05;;;4.20;;
76617;SDS011;65509;42.816;74.648;2023-04-25T03:09:26;24.80;;;5.95;;
76617;SDS011;65509;42.816;74.648;2023-04-25T03:11:51;18.92;;;5.93;;
76617;SDS011;65509;42.816;74.648;2023-04-25T03:14:17;16.27;;;4.85;;
76617;SDS011;65509;42.816;74.648;2023-04-25T03:16:42;22.75;;;5.38;;
76617;SDS011;65509;42.816;74.648;2023-04-25T03:19:07;24.83;;;5.43;;
76617;SDS011;65509;42.816;74.648;2023-04-25T03:21:34;18.88;;;6.05;;
76617;SDS011;65509;42.816;74.648;2023-04-25T03:24:01;18.13;;;5.22;;
76617;SDS011;65509;42.816;74.648;2023-04-25T03:26:27;18.60;;;5.15;;
76617;SDS011;65509;42.816;74.648;2023-04-25T03:28:53;18.75;;;4.65;;
76617;SDS011;65509;42.816;74.648;2023-04-25T03:31:19;13.27;;;4.65;;
76617;SDS011;65509;42.816;74.648;2023-04-25T03:33:44;19.20;;;5.57;;
76617;SDS011;65509;42.816;74.648;2023-04-25T03:36:10;20.65;;;5.95;;
76617;SDS011;65509;42.816;74.648;2023-04-25T03:38:35;31.60;;;6.70;;
76617;SDS011;65509;42.816;74.648;2023-04-25T03:41:01;18.60;;;6.93;;
76617;SDS011;65509;42.816;74.648;2023-04-25T03:43:30;17.75;;;6.70;;
76617;SDS011;65509;42.816;74.648;2023-04-25T03:45:55;20.65;;;6.13;;
76617;SDS011;65509;42.816;74.648;2023-04-25T03:48:21;22.80;;;7.38;;
76617;SDS011;65509;42.816;74.648;2023-04-25T03:50:47;21.08;;;6.63;;
76617;SDS011;65509;42.816;74.648;2023-04-25T03:53:13;27.58;;;7.72;;
76617;SDS011;65509;42.816;74.648;2023-04-25T03:55:38;21.23;;;6.47;;
76617;SDS011;65509;42.816;74.648;2023-04-25T03:58:04;16.27;;;5.63;;
76617;SDS011;65509;42.816;74.648;2023-04-25T04:00:30;21.05;;;5.97;;
76617;SDS011;65509;42.816;74.648;2023-04-25T04:02:55;13.18;;;4.95;;
76617;SDS011;65509;42.816;74.648;2023-04-25T04:05:24;15.98;;;4.82;;
76617;SDS011;65509;42.816;74.648;2023-04-25T04:07:49;15.27;;;4.93;;
76617;SDS011;65509;42.816;74.648;2023-04-25T04:10:15;14.88;;;4.10;;
76617;SDS011;65509;42.816;74.648;2023-04-25T04:12:40;19.83;;;4.45;;
76617;SDS011;65509;42.816;74.648;2023-04-25T04:15:09;17.50;;;4.35;;
76617;SDS011;65509;42.816;74.648;2023-04-25T04:17:34;16.85;;;5.03;;
76617;SDS011;65509;42.816;74.648;2023-04-25T04:20:00;17.38;;;5.03;;
76617;SDS011;65509;42.816;74.648;2023-04-25T04:22:25;17.67;;;5.50;;
76617;SDS011;65509;42.816;74.648;2023-04-25T04:24:51;17.52;;;5.13;;
76617;SDS011;65509;42.816;74.648;2023-04-25T04:27:19;17.90;;;4.82;;
76617;SDS011;65509;42.816;74.648;2023-04-25T04:29:46;24.73;;;5.85;;
76617;SDS011;65509;42.816;74.648;2023-04-25T04:32:12;14.35;;;4.90;;
76617;SDS011;65509;42.816;74.648;2023-04-25T04:34:38;16.00;;;5.03;;
76617;SDS011;65509;42.816;74.648;2023-04-25T04:37:04;21.33;;;5.05;;
76617;SDS011;65509;42.816;74.648;2023-04-25T04:39:32;18.50;;;4.43;;
76617;SDS011;65509;42.816;74.648;2023-04-25T04:41:57;15.85;;;4.55;;
76617;SDS011;65509;42.816;74.648;2023-04-25T04:44:23;12.55;;;4.00;;
76617;SDS011;65509;42.816;74.648;2023-04-25T04:46:51;22.17;;;3.88;;
76617;SDS011;65509;42.816;74.648;2023-04-25T04:49:26;12.25;;;3.92;;
76617;SDS011;65509;42.816;74.648;2023-04-25T04:51:51;15.23;;;3.80;;
76617;SDS011;65509;42.816;74.648;2023-04-25T04:54:23;20.42;;;3.63;;
76617;SDS011;65509;42.816;74.648;2023-04-25T04:56:50;13.77;;;3.33;;
76617;SDS011;65509;42.816;74.648;2023-04-25T04:59:18;17.45;;;3.20;;
76617;SDS011;65509;42.816;74.648;2023-04-25T05:01:43;25.85;;;4.18;;
76617;SDS011;65509;42.816;74.648;2023-04-25T05:04:09;10.75;;;2.90;;
76617;SDS011;65509;42.816;74.648;2023-04-25T05:06:34;20.35;;;3.17;;
76617;SDS011;65509;42.816;74.648;2023-04-25T05:09:01;14.70;;;3.00;;
76617;SDS011;65509;42.816;74.648;2023-04-25T05:11:27;9.43;;;2.40;;
76617;SDS011;65509;42.816;74.648;2023-04-25T05:13:52;14.38;;;2.83;;
76617;SDS011;65509;42.816;74.648;2023-04-25T05:16:21;16.95;;;3.03;;
76617;SDS011;65509;42.816;74.648;2023-04-25T05:18:46;21.98;;;4.82;;
76617;SDS011;65509;42.816;74.648;2023-04-25T05:21:12;16.30;;;4.18;;
76617;SDS011;65509;42.816;74.648;2023-04-25T05:23:37;13.80;;;3.65;;
76617;SDS011;65509;42.816;74.648;2023-04-25T05:26:03;16.95;;;4.50;;
76617;SDS011;65509;42.816;74.648;2023-04-25T05:28:28;14.95;;;4.03;;
76617;SDS011;65509;42.816;74.648;2023-04-25T05:30:54;19.25;;;4.55;;
76617;SDS011;65509;42.816;74.648;2023-04-25T05:33:20;16.48;;;3.40;;
76617;SDS011;65509;42.816;74.648;2023-04-25T05:35:45;15.68;;;4.28;;
76617;SDS011;65509;42.816;74.648;2023-04-25T05:38:11;19.25;;;4.25;;
76617;SDS011;65509;42.816;74.648;2023-04-25T05:40:36;17.67;;;4.28;;
76617;SDS011;65509;42.816;74.648;2023-04-25T05:43:02;12.85;;;3.80;;
76617;SDS011;65509;42.816;74.648;2023-04-25T05:45:27;15.77;;;4.88;;
76617;SDS011;65509;42.816;74.648;2023-04-25T05:47:53;20.08;;;4.00;;
76617;SDS011;65509;42.816;74.648;2023-04-25T05:50:18;20.70;;;4.47;;
76617;SDS011;65509;42.816;74.648;2023-04-25T05:52:44;22.05;;;4.43;;
76617;SDS011;65509;42.816;74.648;2023-04-25T05:55:09;12.80;;;2.65;;
76617;SDS011;65509;42.816;74.648;2023-04-25T05:57:35;19.38;;;3.60;;
76617;SDS011;65509;42.816;74.648;2023-04-25T06:00:01;13.25;;;3.67;;
76617;SDS011;65509;42.816;74.648;2023-04-25T06:02:26;15.60;;;5.20;;
76617;SDS011;65509;42.816;74.648;2023-04-25T06:04:52;19.50;;;4.90;;
76617;SDS011;65509;42.816;74.648;2023-04-25T06:07:18;15.02;;;3.42;;
76617;SDS011;65509;42.816;74.648;2023-04-25T06:09:43;21.98;;;4.50;;
76617;SDS011;65509;42.816;74.648;2023-04-25T06:12:09;13.15;;;2.72;;
76617;SDS011;65509;42.816;74.648;2023-04-25T06:14:35;11.60;;;3.00;;
76617;SDS011;65509;42.816;74.648;2023-04-25T06:17:00;14.23;;;3.55;;
76617;SDS011;65509;42.816;74.648;2023-04-25T06:19:35;14.52;;;3.30;;
76617;SDS011;65509;42.816;74.648;2023-04-25T06:22:01;20.67;;;3.95;;
76617;SDS011;65509;42.816;74.648;2023-04-25T06:24:26;12.23;;;2.78;;
76617;SDS011;65509;42.816;74.648;2023-04-25T06:26:52;26.45;;;4.07;;
76617;SDS011;65509;42.816;74.648;2023-04-25T06:29:17;19.20;;;3.72;;
76617;SDS011;65509;42.816;74.648;2023-04-25T06:31:43;25.98;;;6.10;;
76617;SDS011;65509;42.816;74.648;2023-04-25T06:34:08;19.98;;;3.63;;
76617;SDS011;65509;42.816;74.648;2023-04-25T06:36:34;16.00;;;4.68;;
76617;SDS011;65509;42.816;74.648;2023-04-25T06:38:59;15.30;;;3.35;;
76617;SDS011;65509;42.816;74.648;2023-04-25T06:41:25;15.98;;;3.45;;
76617;SDS011;65509;42.816;74.648;2023-04-25T06:43:50;20.88;;;4.15;;
76617;SDS011;65509;42.816;74.648;2023-04-25T06:46:16;12.20;;;2.95;;
76617;SDS011;65509;42.816;74.648;2023-04-25T06:48:41;15.77;;;3.60;;
76617;SDS011;65509;42.816;74.648;2023-04-25T06:51:07;11.35;;;3.33;;
76617;SDS011;65509;42.816;74.648;2023-04-25T06:53:32;23.25;;;3.60;;
76617;SDS011;65509;42.816;74.648;2023-04-25T06:55:58;14.93;;;3.15;;
76617;SDS011;65509;42.816;74.648;2023-04-25T06:58:26;14.30;;;3.25;;
76617;SDS011;65509;42.816;74.648;2023-04-25T07:00:51;17.85;;;3.92;;
76617;SDS011;65509;42.816;74.648;2023-04-25T07:03:17;15.45;;;3.10;;
76617;SDS011;65509;42.816;74.648;2023-04-25T07:05:42;15.88;;;4.50;;
76617;SDS011;65509;42.816;74.648;2023-04-25T07:08:07;9.18;;;2.38;;
76617;SDS011;65509;42.816;74.648;2023-04-25T07:10:33;17.10;;;4.20;;
76617;SDS011;65509;42.816;74.648;2023-04-25T07:12:58;13.75;;;3.17;;
76617;SDS011;65509;42.816;74.648;2023-04-25T07:15:24;11.43;;;3.33;;
76617;SDS011;65509;42.816;74.648;2023-04-25T07:17:49;14.77;;;3.40;;
76617;SDS011;65509;42.816;74.648;2023-04-25T07:20:15;11.73;;;2.75;;
76617;SDS011;65509;42.816;74.648;2023-04-25T07:22:41;15.70;;;3.88;;
76617;SDS011;65509;42.816;74.648;2023-04-25T07:25:06;18.45;;;2.65;;
76617;SDS011;65509;42.816;74.648;2023-04-25T07:27:33;14.23;;;3.47;;
76617;SDS011;65509;42.816;74.648;2023-04-25T07:29:59;12.98;;;2.90;;
76617;SDS011;65509;42.816;74.648;2023-04-25T07:32:25;19.83;;;3.13;;
76617;SDS011;65509;42.816;74.648;2023-04-25T07:34:50;15.73;;;4.00;;
76617;SDS011;65509;42.816;74.648;2023-04-25T07:37:16;20.77;;;3.28;;
76617;SDS011;65509;42.816;74.648;2023-04-25T07:39:43;20.30;;;3.92;;
76617;SDS011;65509;42.816;74.648;2023-04-25T07:42:11;14.88;;;3.05;;
76617;SDS011;65509;42.816;74.648;2023-04-25T07:44:36;19.67;;;3.22;;
76617;SDS011;65509;42.816;74.648;2023-04-25T07:47:07;16.88;;;3.25;;
76617;SDS011;65509;42.816;74.648;2023-04-25T07:49:33;16.80;;;3.28;;
76617;SDS011;65509;42.816;74.648;2023-04-25T07:51:59;13.90;;;3.20;;
76617;SDS011;65509;42.816;74.648;2023-04-25T07:54:25;15.57;;;3.55;;
76617;SDS011;65509;42.816;74.648;2023-04-25T07:56:51;16.48;;;3.85;;
76617;SDS011;65509;42.816;74.648;2023-04-25T07:59:16;15.32;;;3.28;;
76617;SDS011;65509;42.816;74.648;2023-04-25T08:01:42;14.70;;;3.08;;
76617;SDS011;65509;42.816;74.648;2023-04-25T08:04:07;21.80;;;3.70;;
76617;SDS011;65509;42.816;74.648;2023-04-25T08:06:33;13.93;;;3.60;;
76617;SDS011;65509;42.816;74.648;2023-04-25T08:08:58;14.50;;;3.22;;
76617;SDS011;65509;42.816;74.648;2023-04-25T08:11:24;13.27;;;2.90;;
76617;SDS011;65509;42.816;74.648;2023-04-25T08:13:52;16.77;;;3.90;;
76617;SDS011;65509;42.816;74.648;2023-04-25T08:16:18;21.25;;;3.40;;
76617;SDS011;65509;42.816;74.648;2023-04-25T08:18:43;11.27;;;2.88;;
76617;SDS011;65509;42.816;74.648;2023-04-25T08:21:09;15.20;;;3.67;;
76617;SDS011;65509;42.816;74.648;2023-04-25T08:23:36;15.05;;;3.08;;
76617;SDS011;65509;42.816;74.648;2023-04-25T08:26:02;13.73;;;2.88;;
76617;SDS011;65509;42.816;74.648;2023-04-25T08:28:27;18.75;;;3.17;;
76617;SDS011;65509;42.816;74.648;2023-04-25T08:30:53;18.75;;;3.53;;
76617;SDS011;65509;42.816;74.648;2023-04-25T08:33:18;14.75;;;3.15;;
76617;SDS011;65509;42.816;74.648;2023-04-25T08:35:44;18.48;;;3.95;;
76617;SDS011;65509;42.816;74.648;2023-04-25T08:38:10;13.50;;;2.97;;
76617;SDS011;65509;42.816;74.648;2023-04-25T08:40:37;14.55;;;2.85;;
76617;SDS011;65509;42.816;74.648;2023-04-25T08:43:03;11.70;;;2.80;;
76617;SDS011;65509;42.816;74.648;2023-04-25T08:45:32;12.80;;;2.75;;
76617;SDS011;65509;42.816;74.648;2023-04-25T08:47:58;18.58;;;3.75;;
76617;SDS011;65509;42.816;74.648;2023-04-25T08:50:24;23.38;;;3.65;;
76617;SDS011;65509;42.816;74.648;2023-04-25T08:52:51;15.05;;;3.42;;
76617;SDS011;65509;42.816;74.648;2023-04-25T08:55:18;18.60;;;4.38;;
76617;SDS011;65509;42.816;74.648;2023-04-25T08:57:43;12.32;;;3.13;;
76617;SDS011;65509;42.816;74.648;2023-04-25T09:00:10;13.13;;;2.58;;
76617;SDS011;65509;42.816;74.648;2023-04-25T09:02:37;16.80;;;3.00;;
76617;SDS011;65509;42.816;74.648;2023-04-25T09:05:03;24.65;;;3.45;;
76617;SDS011;65509;42.816;74.648;2023-04-25T09:07:29;34.05;;;4.78;;
76617;SDS011;65509;42.816;74.648;2023-04-25T09:09:55;22.00;;;4.47;;
76617;SDS011;65509;42.816;74.648;2023-04-25T09:12:21;20.52;;;3.65;;
76617;SDS011;65509;42.816;74.648;2023-04-25T09:17:30;15.30;;;3.85;;
76617;SDS011;65509;42.816;74.648;2023-04-25T09:20:05;24.52;;;4.43;;
76617;SDS011;65509;42.816;74.648;2023-04-25T09:22:31;18.95;;;3.25;;
76617;SDS011;65509;42.816;74.648;2023-04-25T09:24:57;30.10;;;3.85;;
76617;SDS011;65509;42.816;74.648;2023-04-25T09:27:22;17.83;;;3.58;;
76617;SDS011;65509;42.816;74.648;2023-04-25T09:29:56;29.58;;;4.47;;
76617;SDS011;65509;42.816;74.648;2023-04-25T09:32:23;23.73;;;3.78;;
76617;SDS011;65509;42.816;74.648;2023-04-25T09:34:55;24.95;;;3.67;;
76617;SDS011;65509;42.816;74.648;2023-04-25T09:37:28;14.83;;;3.17;;
76617;SDS011;65509;42.816;74.648;2023-04-25T09:39:58;25.75;;;4.93;;
76617;SDS011;65509;42.816;74.648;2023-04-25T09:42:30;24.92;;;4.18;;
76617;SDS011;65509;42.816;74.648;2023-04-25T09:44:57;23.55;;;4.50;;
76617;SDS011;65509;42.816;74.648;2023-04-25T09:47:26;19.90;;;3.28;;
76617;SDS011;65509;42.816;74.648;2023-04-25T09:49:54;21.40;;;3.60;;
76617;SDS011;65509;42.816;74.648;2023-04-25T09:52:23;15.48;;;3.45;;
76617;SDS011;65509;42.816;74.648;2023-04-25T09:54:49;22.35;;;3.88;;
76617;SDS011;65509;42.816;74.648;2023-04-25T09:59:44;23.08;;;3.53;;
76617;SDS011;65509;42.816;74.648;2023-04-25T10:02:10;16.40;;;3.28;;
76617;SDS011;65509;42.816;74.648;2023-04-25T10:04:36;24.20;;;3.42;;
76617;SDS011;65509;42.816;74.648;2023-04-25T10:07:03;22.73;;;4.03;;
76617;SDS011;65509;42.816;74.648;2023-04-25T10:09:30;19.40;;;4.25;;
76617;SDS011;65509;42.816;74.648;2023-04-25T10:11:59;26.52;;;4.15;;
76617;SDS011;65509;42.816;74.648;2023-04-25T10:14:25;31.50;;;3.95;;
76617;SDS011;65509;42.816;74.648;2023-04-25T10:16:50;23.67;;;4.05;;
76617;SDS011;65509;42.816;74.648;2023-04-25T10:19:19;16.08;;;3.33;;
76617;SDS011;65509;42.816;74.648;2023-04-25T10:24:28;19.58;;;3.20;;
76617;SDS011;65509;42.816;74.648;2023-04-25T10:26:54;17.55;;;3.28;;
76617;SDS011;65509;42.816;74.648;2023-04-25T10:29:21;18.52;;;3.13;;
76617;SDS011;65509;42.816;74.648;2023-04-25T10:31:48;20.98;;;3.33;;
76617;SDS011;65509;42.816;74.648;2023-04-25T10:34:13;17.45;;;3.40;;
76617;SDS011;65509;42.816;74.648;2023-04-25T10:36:39;22.77;;;3.33;;
76617;SDS011;65509;42.816;74.648;2023-04-25T10:39:05;20.95;;;4.13;;
76617;SDS011;65509;42.816;74.648;2023-04-25T10:41:46;16.23;;;3.15;;
76617;SDS011;65509;42.816;74.648;2023-04-25T10:44:13;15.18;;;3.00;;
76617;SDS011;65509;42.816;74.648;2023-04-25T10:46:38;18.00;;;3.30;;
76617;SDS011;65509;42.816;74.648;2023-04-25T10:49:04;20.55;;;3.53;;
76617;SDS011;65509;42.816;74.648;2023-04-25T10:51:34;24.70;;;3.45;;
76617;SDS011;65509;42.816;74.648;2023-04-25T10:56:27;13.25;;;2.78;;
76617;SDS011;65509;42.816;74.648;2023-04-25T10:59:02;24.42;;;3.95;;
76617;SDS011;65509;42.816;74.648;2023-04-25T11:01:28;17.50;;;3.08;;
76617;SDS011;65509;42.816;74.648;2023-04-25T11:04:00;24.83;;;3.78;;
76617;SDS011;65509;42.816;74.648;2023-04-25T11:06:37;20.65;;;3.35;;
76617;SDS011;65509;42.816;74.648;2023-04-25T11:09:08;21.45;;;3.63;;
76617;SDS011;65509;42.816;74.648;2023-04-25T11:11:36;22.17;;;3.85;;
76617;SDS011;65509;42.816;74.648;2023-04-25T11:14:07;19.52;;;3.70;;
76617;SDS011;65509;42.816;74.648;2023-04-25T11:16:32;19.92;;;3.72;;
76617;SDS011;65509;42.816;74.648;2023-04-25T11:18:58;24.83;;;4.18;;
76617;SDS011;65509;42.816;74.648;2023-04-25T11:21:26;17.00;;;2.70;;
76617;SDS011;65509;42.816;74.648;2023-04-25T11:23:53;18.15;;;3.15;;
76617;SDS011;65509;42.816;74.648;2023-04-25T11:26:19;14.63;;;2.55;;
76617;SDS011;65509;42.816;74.648;2023-04-25T11:28:45;12.35;;;2.58;;
76617;SDS011;65509;42.816;74.648;2023-04-25T11:31:10;31.35;;;4.10;;
76617;SDS011;65509;42.816;74.648;2023-04-25T11:33:35;20.33;;;8.15;;
76617;SDS011;65509;42.816;74.648;2023-04-25T11:36:01;24.77;;;4.35;;
76617;SDS011;65509;42.816;74.648;2023-04-25T11:38:27;10.45;;;3.15;;
76617;SDS011;65509;42.816;74.648;2023-04-25T11:40:58;13.32;;;3.60;;
76617;SDS011;65509;42.816;74.648;2023-04-25T11:43:25;11.27;;;3.20;;
76617;SDS011;65509;42.816;74.648;2023-04-25T11:45:50;11.50;;;2.63;;
76617;SDS011;65509;42.816;74.648;2023-04-25T11:48:17;32.55;;;3.47;;
76617;SDS011;65509;42.816;74.648;2023-04-25T11:50:43;35.50;;;3.58;;
76617;SDS011;65509;42.816;74.648;2023-04-25T11:53:08;28.23;;;3.95;;
76617;SDS011;65509;42.816;74.648;2023-04-25T11:55:34;18.88;;;3.03;;
76617;SDS011;65509;42.816;74.648;2023-04-25T11:58:01;21.85;;;5.32;;
76617;SDS011;65509;42.816;74.648;2023-04-25T12:00:29;19.45;;;4.45;;
76617;SDS011;65509;42.816;74.648;2023-04-25T12:02:55;22.85;;;4.32;;
76617;SDS011;65509;42.816;74.648;2023-04-25T12:05:23;12.23;;;2.97;;
76617;SDS011;65509;42.816;74.648;2023-04-25T12:07:50;18.08;;;3.58;;
76617;SDS011;65509;42.816;74.648;2023-04-25T12:10:16;17.27;;;2.85;;
76617;SDS011;65509;42.816;74.648;2023-04-25T12:12:42;15.43;;;2.83;;
76617;SDS011;65509;42.816;74.648;2023-04-25T12:15:08;15.73;;;3.38;;
76617;SDS011;65509;42.816;74.648;2023-04-25T12:17:34;17.77;;;2.72;;
76617;SDS011;65509;42.816;74.648;2023-04-25T12:20:05;20.15;;;3.22;;
76617;SDS011;65509;42.816;74.648;2023-04-25T12:22:30;17.90;;;2.63;;
76617;SDS011;65509;42.816;74.648;2023-04-25T12:24:56;17.90;;;3.28;;
76617;SDS011;65509;42.816;74.648;2023-04-25T12:27:23;15.45;;;3.00;;
76617;SDS011;65509;42.816;74.648;2023-04-25T12:29:51;11.02;;;2.40;;
76617;SDS011;65509;42.816;74.648;2023-04-25T12:32:17;12.25;;;2.78;;
76617;SDS011;65509;42.816;74.648;2023-04-25T12:34:43;14.10;;;3.00;;
76617;SDS011;65509;42.816;74.648;2023-04-25T12:37:08;17.58;;;3.65;;
76617;SDS011;65509;42.816;74.648;2023-04-25T12:39:34;19.23;;;3.10;;
76617;SDS011;65509;42.816;74.648;2023-04-25T12:41:59;23.60;;;3.65;;
76617;SDS011;65509;42.816;74.648;2023-04-25T12:44:26;31.83;;;3.88;;
76617;SDS011;65509;42.816;74.648;2023-04-25T12:46:51;16.10;;;3.40;;
76617;SDS011;65509;42.816;74.648;2023-04-25T12:49:17;17.50;;;3.05;;
76617;SDS011;65509;42.816;74.648;2023-04-25T12:51:42;16.40;;;3.17;;
76617;SDS011;65509;42.816;74.648;2023-04-25T12:54:08;22.88;;;3.78;;
76617;SDS011;65509;42.816;74.648;2023-04-25T12:56:34;15.25;;;3.08;;
76617;SDS011;65509;42.816;74.648;2023-04-25T12:59:00;20.02;;;4.70;;
76617;SDS011;65509;42.816;74.648;2023-04-25T13:01:25;19.77;;;5.72;;
76617;SDS011;65509;42.816;74.648;2023-04-25T13:03:51;21.40;;;5.45;;
76617;SDS011;65509;42.816;74.648;2023-04-25T13:06:18;18.05;;;3.85;;
76617;SDS011;65509;42.816;74.648;2023-04-25T13:08:43;15.18;;;3.13;;
76617;SDS011;65509;42.816;74.648;2023-04-25T13:11:09;22.45;;;4.72;;
76617;SDS011;65509;42.816;74.648;2023-04-25T13:13:35;22.70;;;3.67;;
76617;SDS011;65509;42.816;74.648;2023-04-25T13:16:03;20.90;;;3.85;;
76617;SDS011;65509;42.816;74.648;2023-04-25T13:18:29;17.90;;;3.65;;
76617;SDS011;65509;42.816;74.648;2023-04-25T13:20:54;24.55;;;4.15;;
76617;SDS011;65509;42.816;74.648;2023-04-25T13:23:20;25.83;;;4.22;;
76617;SDS011;65509;42.816;74.648;2023-04-25T13:25:46;21.75;;;4.30;;
76617;SDS011;65509;42.816;74.648;2023-04-25T13:28:14;16.80;;;4.63;;
76617;SDS011;65509;42.816;74.648;2023-04-25T13:30:40;13.85;;;3.78;;
76617;SDS011;65509;42.816;74.648;2023-04-25T13:33:05;22.45;;;4.85;;
76617;SDS011;65509;42.816;74.648;2023-04-25T13:35:32;18.33;;;3.83;;
76617;SDS011;65509;42.816;74.648;2023-04-25T13:37:57;14.10;;;3.72;;
76617;SDS011;65509;42.816;74.648;2023-04-25T13:40:23;14.38;;;4.50;;
76617;SDS011;65509;42.816;74.648;2023-04-25T13:42:48;21.88;;;4.97;;
76617;SDS011;65509;42.816;74.648;2023-04-25T13:45:14;31.98;;;6.35;;
76617;SDS011;65509;42.816;74.648;2023-04-25T13:47:39;21.63;;;4.90;;
76617;SDS011;65509;42.816;74.648;2023-04-25T13:50:05;31.77;;;6.28;;
76617;SDS011;65509;42.816;74.648;2023-04-25T13:52:32;23.15;;;5.50;;
76617;SDS011;65509;42.816;74.648;2023-04-25T13:54:58;18.98;;;5.35;;
76617;SDS011;65509;42.816;74.648;2023-04-25T13:57:23;25.92;;;6.32;;
76617;SDS011;65509;42.816;74.648;2023-04-25T13:59:49;24.05;;;5.97;;
76617;SDS011;65509;42.816;74.648;2023-04-25T14:02:15;24.83;;;5.53;;
76617;SDS011;65509;42.816;74.648;2023-04-25T14:04:41;24.40;;;5.15;;
76617;SDS011;65509;42.816;74.648;2023-04-25T14:07:06;20.15;;;4.47;;
76617;SDS011;65509;42.816;74.648;2023-04-25T14:09:31;33.67;;;5.65;;
76617;SDS011;65509;42.816;74.648;2023-04-25T14:11:57;17.50;;;4.13;;
76617;SDS011;65509;42.816;74.648;2023-04-25T14:14:23;20.00;;;4.28;;
76617;SDS011;65509;42.816;74.648;2023-04-25T14:16:49;19.27;;;4.68;;
76617;SDS011;65509;42.816;74.648;2023-04-25T14:19:15;21.10;;;5.05;;
76617;SDS011;65509;42.816;74.648;2023-04-25T14:21:41;23.67;;;4.50;;
76617;SDS011;65509;42.816;74.648;2023-04-25T14:24:06;33.88;;;6.15;;
76617;SDS011;65509;42.816;74.648;2023-04-25T14:26:35;28.58;;;4.63;;